createdAt,value
2023-01-17T00:00:05.768Z,16.08
2023-01-17T00:01:05.742Z,16.14
2023-01-17T00:02:05.793Z,16.10
2023-01-17T00:03:06.095Z,16.14
2023-01-17T00:04:05.896Z,16.11
2023-01-17T00:05:05.852Z,16.08
2023-01-17T00:06:05.871Z,16.18
2023-01-17T00:07:05.903Z,16.08
2023-01-17T00:08:05.949Z,16.06
2023-01-17T00:10:06.231Z,16.10
2023-01-17T00:11:06.003Z,16.06
2023-01-17T00:12:06.222Z,16.11
2023-01-17T00:13:06.057Z,16.11
2023-01-17T00:14:06.082Z,16.06
2023-01-17T00:15:06.112Z,16.06
2023-01-17T00:16:06.149Z,16.13
2023-01-17T00:17:06.409Z,16.13
2023-01-17T00:18:06.192Z,16.07
2023-01-17T00:19:06.211Z,16.10
2023-01-17T00:20:06.243Z,16.10
2023-01-17T00:21:06.264Z,16.11
2023-01-17T00:22:06.287Z,16.10
2023-01-17T00:23:06.343Z,16.08
2023-01-17T00:24:06.610Z,16.10
2023-01-17T00:25:06.369Z,16.07
2023-01-17T00:26:06.411Z,16.08
2023-01-17T00:27:06.414Z,16.04
2023-01-17T00:28:06.445Z,16.03
2023-01-17T00:29:06.485Z,16.01
2023-01-17T00:30:06.747Z,15.98
2023-01-17T00:31:06.574Z,16.07
2023-01-17T00:32:06.566Z,15.99
2023-01-17T00:33:06.581Z,15.98
2023-01-17T00:34:06.701Z,15.98
2023-01-17T00:35:06.727Z,15.96
2023-01-17T00:37:07.011Z,15.99
2023-01-17T00:38:06.701Z,15.98
2023-01-17T00:39:06.730Z,15.88
2023-01-17T00:40:06.775Z,15.98
2023-01-17T00:41:06.788Z,15.96
2023-01-17T00:42:06.805Z,15.92
2023-01-17T00:43:07.133Z,15.96
2023-01-17T00:44:06.855Z,15.85
2023-01-17T00:45:06.895Z,15.95
2023-01-17T00:46:06.909Z,15.95
2023-01-17T00:47:06.939Z,15.91
2023-01-17T00:48:07.265Z,15.91
2023-01-17T00:50:07.315Z,15.92
2023-01-17T00:51:07.043Z,15.89
2023-01-17T00:52:07.073Z,15.86
2023-01-17T00:53:07.086Z,15.89
2023-01-17T00:54:07.118Z,15.84
2023-01-17T00:55:07.150Z,15.86
2023-01-17T00:56:07.445Z,15.86
2023-01-17T00:57:07.197Z,15.93
2023-01-17T00:58:07.220Z,15.86
2023-01-17T00:59:07.267Z,15.78
2023-01-17T01:00:07.273Z,15.85
2023-01-17T01:01:07.404Z,15.81
2023-01-17T01:02:07.411Z,15.78
2023-01-17T01:03:07.696Z,15.80
2023-01-17T01:04:07.378Z,15.78
2023-01-17T01:05:07.415Z,15.76
2023-01-17T01:06:07.429Z,15.73
2023-01-17T01:07:07.464Z,15.81
2023-01-17T01:08:07.478Z,15.77
2023-01-17T01:09:07.504Z,15.74
2023-01-17T01:10:07.532Z,15.80
2023-01-17T01:11:07.553Z,15.77
2023-01-17T01:12:07.604Z,15.71
2023-01-17T01:13:07.608Z,15.76
2023-01-17T01:14:07.632Z,15.76
2023-01-17T01:15:07.664Z,15.71
2023-01-17T01:16:08.061Z,15.73
2023-01-17T01:17:07.716Z,15.73
2023-01-17T01:18:07.735Z,15.67
2023-01-17T01:19:07.765Z,15.67
2023-01-17T01:20:07.790Z,15.71
2023-01-17T01:21:07.813Z,15.66
2023-01-17T01:22:07.838Z,15.70
2023-01-17T01:23:07.863Z,15.66
2023-01-17T01:24:07.895Z,15.67
2023-01-17T01:25:07.920Z,15.68
2023-01-17T01:26:07.955Z,15.60
2023-01-17T01:27:07.972Z,15.60
2023-01-17T01:28:08.021Z,15.68
2023-01-17T01:29:08.322Z,15.60
2023-01-17T01:30:08.046Z,15.60
2023-01-17T01:31:08.095Z,15.56
2023-01-17T01:32:08.212Z,15.68
2023-01-17T01:33:08.122Z,15.59
2023-01-17T01:34:08.147Z,15.53
2023-01-17T01:35:08.432Z,15.55
2023-01-17T01:36:08.212Z,15.60
2023-01-17T01:37:08.233Z,15.66
2023-01-17T01:38:08.250Z,15.67
2023-01-17T01:40:08.299Z,15.68
2023-01-17T01:41:08.328Z,15.62
2023-01-17T01:42:08.602Z,15.59
2023-01-17T01:43:08.377Z,15.62
2023-01-17T01:44:08.429Z,15.56
2023-01-17T01:45:08.448Z,15.53
2023-01-17T01:46:08.454Z,15.58
2023-01-17T01:47:08.480Z,15.55
2023-01-17T01:48:08.758Z,15.56
2023-01-17T01:49:08.540Z,15.48
2023-01-17T01:50:08.563Z,15.56
2023-01-17T01:51:08.594Z,15.55
2023-01-17T01:52:08.609Z,15.49
2023-01-17T01:53:08.644Z,15.62
2023-01-17T01:54:08.679Z,15.51
2023-01-17T01:55:08.690Z,15.53
2023-01-17T01:56:08.714Z,15.49
2023-01-17T01:57:08.758Z,15.49
2023-01-17T01:58:08.763Z,15.53
2023-01-17T01:59:08.789Z,15.52
2023-01-17T02:00:09.101Z,15.51
2023-01-17T02:01:08.912Z,15.43
2023-01-17T02:02:08.870Z,15.52
2023-01-17T02:03:08.913Z,15.46
2023-01-17T02:04:08.981Z,15.49
2023-01-17T02:05:08.945Z,15.41
2023-01-17T02:07:09.312Z,15.43
2023-01-17T02:08:09.028Z,15.53
2023-01-17T02:09:09.073Z,15.51
2023-01-17T02:10:09.073Z,15.46
2023-01-17T02:11:09.099Z,15.41
2023-01-17T02:12:09.132Z,15.37
2023-01-17T02:14:09.775Z,15.48
2023-01-17T02:15:09.200Z,15.44
2023-01-17T02:16:09.319Z,15.43
2023-01-17T02:17:09.254Z,15.41
2023-01-17T02:18:09.274Z,15.37
2023-01-17T02:19:09.302Z,15.38
2023-01-17T02:20:09.342Z,15.40
2023-01-17T02:21:09.608Z,15.37
2023-01-17T02:22:09.380Z,15.35
2023-01-17T02:23:09.406Z,15.34
2023-01-17T02:24:09.465Z,15.35
2023-01-17T02:25:09.462Z,15.34
2023-01-17T02:26:09.501Z,15.33
2023-01-17T02:27:09.521Z,15.34
2023-01-17T02:28:09.546Z,15.35
2023-01-17T02:29:09.563Z,15.28
2023-01-17T02:30:09.583Z,15.28
2023-01-17T02:31:09.613Z,15.38
2023-01-17T02:32:09.660Z,15.33
2023-01-17T02:33:09.662Z,15.30
2023-01-17T02:34:09.997Z,15.27
2023-01-17T02:35:09.725Z,15.28
2023-01-17T02:36:09.741Z,15.33
2023-01-17T02:37:09.767Z,15.34
2023-01-17T02:38:09.789Z,15.33
2023-01-17T02:39:09.848Z,15.23
2023-01-17T02:40:09.842Z,15.37
2023-01-17T02:41:09.869Z,15.35
2023-01-17T02:42:09.901Z,15.34
2023-01-17T02:43:09.920Z,15.35
2023-01-17T02:44:09.959Z,15.28
2023-01-17T02:45:09.972Z,15.34
2023-01-17T02:46:10.362Z,15.31
2023-01-17T02:47:10.028Z,15.31
2023-01-17T02:48:10.067Z,15.25
2023-01-17T02:49:10.079Z,15.30
2023-01-17T02:50:10.194Z,15.28
2023-01-17T02:51:10.128Z,15.27
2023-01-17T02:52:10.454Z,15.19
2023-01-17T02:53:10.177Z,15.27
2023-01-17T02:54:10.196Z,15.15
2023-01-17T02:55:10.226Z,15.25
2023-01-17T02:56:10.251Z,15.16
2023-01-17T02:57:10.279Z,15.25
2023-01-17T02:58:10.304Z,15.22
2023-01-17T02:59:10.334Z,15.25
2023-01-17T03:00:10.360Z,15.23
2023-01-17T03:01:10.509Z,15.19
2023-01-17T03:02:10.544Z,15.23
2023-01-17T03:03:10.440Z,15.30
2023-01-17T03:04:10.474Z,15.33
2023-01-17T03:05:10.793Z,15.22
2023-01-17T03:07:10.561Z,15.25
2023-01-17T03:08:10.564Z,15.27
2023-01-17T03:09:10.616Z,15.33
2023-01-17T03:10:10.635Z,15.28
2023-01-17T03:11:10.648Z,15.27
2023-01-17T03:13:10.933Z,15.23
2023-01-17T03:14:10.714Z,15.22
2023-01-17T03:15:10.739Z,15.25
2023-01-17T03:16:12.662Z,15.23
2023-01-17T03:17:10.793Z,15.25
2023-01-17T03:18:10.815Z,15.27
2023-01-17T03:19:10.837Z,15.27
2023-01-17T03:20:11.183Z,15.23
2023-01-17T03:21:10.890Z,15.25
2023-01-17T03:22:10.923Z,15.25
2023-01-17T03:23:10.941Z,15.20
2023-01-17T03:24:10.967Z,15.19
2023-01-17T03:25:10.994Z,15.19
2023-01-17T03:26:11.022Z,15.27
2023-01-17T03:27:11.359Z,15.20
2023-01-17T03:28:11.089Z,15.19
2023-01-17T03:29:11.101Z,15.28
2023-01-17T03:30:11.119Z,15.19
2023-01-17T03:31:11.155Z,15.25
2023-01-17T03:32:11.168Z,15.27
2023-01-17T03:33:11.202Z,15.22
2023-01-17T03:34:11.535Z,15.23
2023-01-17T03:35:11.298Z,15.23
2023-01-17T03:36:11.302Z,15.22
2023-01-17T03:37:11.299Z,15.19
2023-01-17T03:38:11.332Z,15.18
2023-01-17T03:39:11.349Z,15.23
2023-01-17T03:40:11.373Z,15.16
2023-01-17T03:41:11.650Z,15.15
2023-01-17T03:42:11.421Z,15.11
2023-01-17T03:43:11.447Z,15.16
2023-01-17T03:44:11.479Z,15.23
2023-01-17T03:45:11.510Z,15.12
2023-01-17T03:46:11.678Z,15.22
2023-01-17T03:47:11.550Z,15.19
2023-01-17T03:48:11.593Z,15.13
2023-01-17T03:49:11.603Z,15.16
2023-01-17T03:50:11.628Z,15.16
2023-01-17T03:51:11.656Z,15.19
2023-01-17T03:52:11.802Z,15.18
2023-01-17T03:53:11.714Z,15.15
2023-01-17T03:54:12.032Z,15.16
2023-01-17T03:55:11.768Z,15.19
2023-01-17T03:56:11.797Z,15.16
2023-01-17T03:57:11.834Z,15.16
2023-01-17T03:58:11.832Z,15.15
2023-01-17T04:00:11.881Z,15.15
2023-01-17T04:01:11.954Z,15.16
2023-01-17T04:02:12.139Z,15.13
2023-01-17T04:03:11.966Z,15.13
2023-01-17T04:04:11.997Z,15.16
2023-01-17T04:05:12.022Z,15.13
2023-01-17T04:06:12.310Z,15.07
2023-01-17T04:07:12.061Z,15.13
2023-01-17T04:08:12.110Z,15.15
2023-01-17T04:09:12.108Z,15.19
2023-01-17T04:10:12.142Z,15.16
2023-01-17T04:11:12.160Z,15.19
2023-01-17T04:12:12.452Z,15.13
2023-01-17T04:13:12.211Z,15.09
2023-01-17T04:14:12.247Z,15.15
2023-01-17T04:15:12.276Z,15.05
2023-01-17T04:16:12.424Z,15.13
2023-01-17T04:17:12.325Z,15.07
2023-01-17T04:18:12.367Z,15.11
2023-01-17T04:19:12.367Z,15.09
2023-01-17T04:20:12.496Z,15.04
2023-01-17T04:21:12.418Z,15.11
2023-01-17T04:22:12.445Z,15.11
2023-01-17T04:23:12.465Z,15.05
2023-01-17T04:24:12.517Z,15.04
2023-01-17T04:25:12.820Z,15.12
2023-01-17T04:26:12.588Z,15.05
2023-01-17T04:27:12.605Z,15.04
2023-01-17T04:28:12.655Z,15.05
2023-01-17T04:29:12.632Z,15.00
2023-01-17T04:30:12.643Z,15.07
2023-01-17T04:31:12.861Z,15.03
2023-01-17T04:32:12.701Z,14.94
2023-01-17T04:33:12.722Z,14.98
2023-01-17T04:34:12.752Z,14.97
2023-01-17T04:35:12.803Z,15.05
2023-01-17T04:36:12.906Z,15.01
2023-01-17T04:37:12.835Z,15.09
2023-01-17T04:38:13.148Z,14.98
2023-01-17T04:39:12.889Z,15.11
2023-01-17T04:40:12.937Z,15.07
2023-01-17T04:41:12.926Z,15.09
2023-01-17T04:42:12.957Z,15.04
2023-01-17T04:43:12.975Z,15.04
2023-01-17T04:44:12.999Z,15.07
2023-01-17T04:45:13.436Z,15.01
2023-01-17T04:46:13.097Z,15.00
2023-01-17T04:47:13.080Z,14.98
2023-01-17T04:48:13.130Z,15.11
2023-01-17T04:49:13.138Z,15.01
2023-01-17T04:50:13.179Z,15.01
2023-01-17T04:51:13.177Z,15.07
2023-01-17T04:52:13.229Z,14.98
2023-01-17T04:54:13.286Z,15.05
2023-01-17T04:55:13.296Z,15.11
2023-01-17T04:56:13.328Z,15.05
2023-01-17T04:57:13.358Z,15.07
2023-01-17T04:58:13.613Z,15.05
2023-01-17T04:59:13.394Z,15.07
2023-01-17T05:00:13.407Z,15.07
2023-01-17T05:01:13.528Z,15.09
2023-01-17T05:02:13.460Z,15.05
2023-01-17T05:03:13.484Z,15.12
2023-01-17T05:04:13.763Z,15.09
2023-01-17T05:05:13.530Z,15.04
2023-01-17T05:06:13.569Z,15.07
2023-01-17T05:07:13.587Z,15.07
2023-01-17T05:08:13.604Z,15.09
2023-01-17T05:09:13.667Z,15.03
2023-01-17T05:10:13.964Z,15.03
2023-01-17T05:11:13.683Z,15.12
2023-01-17T05:13:13.872Z,15.15
2023-01-17T05:14:13.775Z,15.05
2023-01-17T05:15:13.795Z,15.07
2023-01-17T05:16:13.812Z,15.05
2023-01-17T05:17:14.152Z,15.04
2023-01-17T05:18:13.876Z,15.13
2023-01-17T05:19:13.889Z,15.04
2023-01-17T05:20:13.931Z,15.01
2023-01-17T05:21:13.950Z,15.04
2023-01-17T05:22:13.979Z,15.03
2023-01-17T05:23:14.264Z,15.12
2023-01-17T05:25:14.294Z,15.00
2023-01-17T05:26:14.115Z,15.00
2023-01-17T05:27:14.102Z,15.00
2023-01-17T05:28:14.175Z,15.09
2023-01-17T05:29:14.381Z,15.04
2023-01-17T05:30:14.197Z,15.07
2023-01-17T05:31:14.531Z,15.11
2023-01-17T05:32:14.222Z,15.09
2023-01-17T05:33:14.239Z,15.05
2023-01-17T05:34:14.269Z,15.11
2023-01-17T05:35:14.301Z,15.01
2023-01-17T05:36:14.421Z,15.01
2023-01-17T05:37:14.499Z,15.05
2023-01-17T05:38:14.393Z,15.13
2023-01-17T05:39:14.398Z,15.13
2023-01-17T05:40:14.430Z,15.07
2023-01-17T05:41:14.445Z,15.12
2023-01-17T05:42:14.481Z,15.19
2023-01-17T05:43:14.505Z,15.15
2023-01-17T05:44:14.826Z,15.15
2023-01-17T05:45:14.569Z,15.15
2023-01-17T05:46:14.606Z,15.19
2023-01-17T05:47:14.602Z,15.23
2023-01-17T05:48:14.627Z,15.19
2023-01-17T05:49:14.649Z,15.13
2023-01-17T05:50:14.674Z,15.16
2023-01-17T05:51:14.959Z,15.23
2023-01-17T05:52:14.733Z,15.22
2023-01-17T05:53:14.759Z,15.22
2023-01-17T05:54:14.777Z,15.23
2023-01-17T05:55:14.804Z,15.23
2023-01-17T05:56:14.838Z,15.23
2023-01-17T05:57:14.850Z,15.20
2023-01-17T05:58:14.884Z,15.30
2023-01-17T06:00:14.933Z,15.25
2023-01-17T06:01:15.016Z,15.38
2023-01-17T06:02:15.062Z,15.35
2023-01-17T06:03:15.006Z,15.31
2023-01-17T06:04:15.036Z,15.34
2023-01-17T06:05:15.369Z,15.28
2023-01-17T06:06:15.092Z,15.27
2023-01-17T06:07:15.110Z,15.38
2023-01-17T06:09:15.162Z,15.30
2023-01-17T06:10:15.204Z,15.35
2023-01-17T06:11:15.212Z,15.28
2023-01-17T06:12:15.490Z,15.31
2023-01-17T06:13:15.351Z,15.40
2023-01-17T06:14:15.293Z,15.40
2023-01-17T06:15:15.318Z,15.35
2023-01-17T06:16:15.408Z,15.40
2023-01-17T06:17:15.399Z,15.34
2023-01-17T06:18:15.425Z,15.40
2023-01-17T06:19:15.675Z,15.35
2023-01-17T06:20:15.447Z,15.40
2023-01-17T06:21:15.469Z,15.35
2023-01-17T06:22:15.501Z,15.40
2023-01-17T06:23:15.529Z,15.35
2023-01-17T06:24:15.560Z,15.44
2023-01-17T06:25:15.569Z,15.37
2023-01-17T06:26:15.859Z,15.44
2023-01-17T06:27:15.634Z,15.43
2023-01-17T06:28:15.665Z,15.37
2023-01-17T06:29:15.677Z,15.40
2023-01-17T06:31:15.790Z,15.40
2023-01-17T06:32:16.053Z,15.41
2023-01-17T06:33:15.791Z,15.40
2023-01-17T06:34:15.814Z,15.38
2023-01-17T06:35:15.824Z,15.43
2023-01-17T06:36:15.871Z,15.44
2023-01-17T06:37:15.898Z,15.38
2023-01-17T06:38:16.203Z,15.48
2023-01-17T06:39:15.934Z,15.49
2023-01-17T06:40:15.956Z,15.43
2023-01-17T06:41:16.080Z,15.46
2023-01-17T06:42:16.020Z,15.46
2023-01-17T06:43:16.144Z,15.35
2023-01-17T06:44:16.357Z,15.48
2023-01-17T06:45:16.083Z,15.49
2023-01-17T06:46:16.183Z,15.51
2023-01-17T06:47:16.138Z,15.43
2023-01-17T06:48:16.174Z,15.46
2023-01-17T06:49:16.221Z,15.40
2023-01-17T06:50:16.220Z,15.43
2023-01-17T06:51:16.552Z,15.48
2023-01-17T06:52:16.257Z,15.43
2023-01-17T06:53:16.293Z,15.43
2023-01-17T06:54:16.314Z,15.48
2023-01-17T06:55:16.347Z,15.46
2023-01-17T06:56:16.391Z,15.44
2023-01-17T06:57:16.392Z,15.41
2023-01-17T06:58:16.420Z,15.44
2023-01-17T06:59:16.445Z,15.46
2023-01-17T07:00:16.470Z,15.44
2023-01-17T07:01:16.630Z,15.49
2023-01-17T07:02:16.516Z,15.52
2023-01-17T07:03:16.553Z,15.46
2023-01-17T07:04:16.825Z,15.48
2023-01-17T07:05:16.640Z,15.48
2023-01-17T07:06:16.623Z,15.48
2023-01-17T07:07:16.656Z,15.49
2023-01-17T07:08:16.670Z,15.51
2023-01-17T07:09:16.724Z,15.53
2023-01-17T07:10:16.791Z,15.51
2023-01-17T07:11:17.003Z,15.49
2023-01-17T07:12:16.775Z,15.48
2023-01-17T07:13:16.832Z,15.49
2023-01-17T07:14:16.833Z,15.55
2023-01-17T07:15:16.857Z,15.52
2023-01-17T07:16:16.943Z,15.52
2023-01-17T07:17:16.919Z,15.49
2023-01-17T07:18:17.235Z,15.59
2023-01-17T07:19:16.965Z,15.64
2023-01-17T07:20:16.984Z,15.62
2023-01-17T07:22:17.063Z,15.58
2023-01-17T07:24:17.101Z,15.60
2023-01-17T07:25:17.119Z,15.59
2023-01-17T07:26:17.283Z,15.60
2023-01-17T07:27:17.169Z,15.62
2023-01-17T07:28:17.237Z,15.58
2023-01-17T07:29:17.558Z,15.60
2023-01-17T07:30:17.462Z,15.60
2023-01-17T07:31:17.559Z,15.59
2023-01-17T07:32:17.295Z,15.66
2023-01-17T07:34:17.357Z,15.59
2023-01-17T07:35:17.388Z,15.70
2023-01-17T07:36:17.401Z,15.73
2023-01-17T07:37:17.520Z,15.66
2023-01-17T07:38:17.476Z,15.60
2023-01-17T07:39:17.481Z,15.73
2023-01-17T07:40:17.655Z,15.59
2023-01-17T07:41:17.624Z,15.62
2023-01-17T07:42:17.857Z,15.74
2023-01-17T07:43:17.584Z,15.71
2023-01-17T07:44:17.611Z,15.56
2023-01-17T07:45:17.755Z,15.64
2023-01-17T07:46:17.689Z,15.66
2023-01-17T07:47:17.685Z,15.67
2023-01-17T07:48:17.769Z,15.62
2023-01-17T07:49:17.737Z,15.59
2023-01-17T07:50:17.763Z,15.64
2023-01-17T07:51:17.790Z,15.64
2023-01-17T07:52:18.354Z,15.67
2023-01-17T07:53:17.844Z,15.71
2023-01-17T07:54:17.905Z,15.67
2023-01-17T07:55:18.140Z,15.70
2023-01-17T07:56:18.217Z,15.67
2023-01-17T07:57:17.941Z,15.64
2023-01-17T07:58:17.969Z,15.68
2023-01-17T07:59:18.000Z,15.67
2023-01-17T08:00:18.054Z,15.68
2023-01-17T08:01:18.215Z,15.73
2023-01-17T08:02:18.326Z,15.73
2023-01-17T08:04:18.154Z,15.76
2023-01-17T08:05:18.151Z,15.68
2023-01-17T08:06:18.188Z,15.78
2023-01-17T08:07:18.205Z,15.73
2023-01-17T08:08:18.236Z,15.71
2023-01-17T08:09:18.565Z,15.73
2023-01-17T08:10:18.319Z,15.74
2023-01-17T08:11:18.313Z,15.77
2023-01-17T08:12:18.438Z,15.80
2023-01-17T08:13:18.438Z,15.80
2023-01-17T08:14:18.398Z,15.84
2023-01-17T08:15:18.418Z,15.78
2023-01-17T08:16:18.469Z,15.80
2023-01-17T08:17:18.465Z,15.74
2023-01-17T08:18:18.497Z,15.78
2023-01-17T08:19:18.538Z,15.78
2023-01-17T08:21:18.624Z,15.80
2023-01-17T08:22:18.595Z,15.86
2023-01-17T08:23:18.626Z,15.80
2023-01-17T08:24:18.651Z,15.85
2023-01-17T08:25:18.680Z,15.84
2023-01-17T08:26:18.741Z,15.84
2023-01-17T08:27:18.725Z,15.89
2023-01-17T08:28:18.763Z,15.93
2023-01-17T08:29:18.784Z,15.91
2023-01-17T08:30:18.838Z,15.89
2023-01-17T08:32:19.159Z,15.85
2023-01-17T08:33:18.990Z,15.98
2023-01-17T08:34:18.923Z,15.88
2023-01-17T08:35:18.938Z,15.98
2023-01-17T08:36:18.979Z,15.89
2023-01-17T08:37:19.042Z,15.98
2023-01-17T08:38:19.021Z,15.95
2023-01-17T08:39:19.298Z,15.99
2023-01-17T08:40:19.075Z,15.86
2023-01-17T08:41:19.124Z,15.92
2023-01-17T08:42:19.151Z,15.98
2023-01-17T08:43:19.149Z,15.99
2023-01-17T08:44:19.211Z,15.95
2023-01-17T08:45:19.265Z,16.01
2023-01-17T08:48:19.287Z,16.03
2023-01-17T08:49:19.321Z,15.99
2023-01-17T08:50:19.348Z,16.06
2023-01-17T08:51:19.364Z,16.07
2023-01-17T08:52:19.654Z,16.07
2023-01-17T08:53:19.414Z,16.03
2023-01-17T08:54:19.451Z,16.06
2023-01-17T08:55:19.470Z,16.06
2023-01-17T08:56:19.500Z,16.07
2023-01-17T08:57:19.517Z,16.04
2023-01-17T08:58:19.575Z,16.11
2023-01-17T08:59:19.826Z,16.11
2023-01-17T09:00:19.614Z,16.10
2023-01-17T09:01:19.999Z,16.01
2023-01-17T09:02:19.667Z,16.07
2023-01-17T09:03:19.676Z,16.08
2023-01-17T09:04:19.933Z,16.08
2023-01-17T09:05:19.737Z,16.08
2023-01-17T09:06:20.007Z,16.13
2023-01-17T09:07:19.781Z,16.10
2023-01-17T09:08:19.810Z,16.06
2023-01-17T09:09:19.834Z,16.14
2023-01-17T09:10:19.876Z,16.10
2023-01-17T09:11:19.898Z,16.07
2023-01-17T09:12:19.917Z,16.16
2023-01-17T09:13:19.944Z,16.14
2023-01-17T09:14:20.045Z,16.11
2023-01-17T09:15:19.994Z,16.13
2023-01-17T09:16:20.085Z,16.17
2023-01-17T09:17:20.044Z,16.10
2023-01-17T09:18:20.095Z,16.10
2023-01-17T09:19:20.357Z,16.14
2023-01-17T09:20:20.127Z,16.08
2023-01-17T09:22:20.182Z,16.23
2023-01-17T09:23:20.208Z,16.06
2023-01-17T09:24:20.234Z,16.16
2023-01-17T09:25:20.510Z,16.22
2023-01-17T09:26:20.296Z,16.17
2023-01-17T09:27:20.316Z,16.18
2023-01-17T09:28:20.350Z,16.18
2023-01-17T09:29:20.366Z,16.11
2023-01-17T09:30:20.506Z,16.23
2023-01-17T09:31:20.432Z,16.14
2023-01-17T09:32:20.466Z,16.18
2023-01-17T09:33:20.489Z,16.16
2023-01-17T09:34:20.499Z,16.23
2023-01-17T09:35:20.526Z,16.13
2023-01-17T09:36:20.565Z,16.18
2023-01-17T09:37:20.583Z,16.25
2023-01-17T09:38:20.611Z,16.29
2023-01-17T09:39:20.653Z,16.23
2023-01-17T09:40:20.664Z,16.29
2023-01-17T09:41:20.864Z,16.30
2023-01-17T09:42:20.716Z,16.30
2023-01-17T09:43:20.745Z,16.29
2023-01-17T09:44:20.773Z,16.27
2023-01-17T09:45:20.794Z,16.27
2023-01-17T09:46:20.841Z,16.36
2023-01-17T09:47:20.897Z,16.40
2023-01-17T09:48:20.879Z,16.36
2023-01-17T09:49:21.205Z,16.33
2023-01-17T09:50:20.933Z,16.32
2023-01-17T09:51:20.969Z,16.33
2023-01-17T09:52:21.031Z,16.33
2023-01-17T09:53:21.044Z,16.42
2023-01-17T09:54:21.030Z,16.40
2023-01-17T09:55:21.072Z,16.41
2023-01-17T09:56:21.340Z,16.37
2023-01-17T09:57:21.116Z,16.34
2023-01-17T09:58:21.136Z,16.40
2023-01-17T09:59:21.175Z,16.40
2023-01-17T10:00:21.286Z,16.42
2023-01-17T10:01:21.423Z,16.40
2023-01-17T10:02:23.372Z,16.42
2023-01-17T10:03:21.379Z,16.44
2023-01-17T10:04:21.380Z,16.44
2023-01-17T10:05:21.327Z,16.47
2023-01-17T10:06:21.356Z,16.47
2023-01-17T10:07:21.382Z,16.45
2023-01-17T10:08:21.406Z,16.41
2023-01-17T10:09:21.444Z,16.55
2023-01-17T10:10:21.465Z,16.51
2023-01-17T10:11:21.488Z,16.57
2023-01-17T10:12:21.528Z,16.50
2023-01-17T10:13:21.550Z,16.55
2023-01-17T10:14:21.867Z,16.52
2023-01-17T10:16:21.703Z,16.55
2023-01-17T10:17:21.652Z,16.57
2023-01-17T10:18:29.670Z,16.60
2023-01-17T10:19:21.704Z,16.60
2023-01-17T10:20:21.761Z,16.52
2023-01-17T10:21:22.064Z,16.62
2023-01-17T10:22:21.796Z,16.60
2023-01-17T10:23:21.830Z,16.63
2023-01-17T10:24:21.845Z,16.65
2023-01-17T10:25:21.986Z,16.59
2023-01-17T10:26:21.948Z,16.62
2023-01-17T10:27:21.930Z,16.65
2023-01-17T10:28:22.267Z,16.63
2023-01-17T10:29:22.007Z,16.66
2023-01-17T10:30:22.050Z,16.67
2023-01-17T10:31:22.329Z,16.67
2023-01-17T10:32:22.077Z,16.60
2023-01-17T10:33:22.087Z,16.62
2023-01-17T10:34:22.195Z,16.65
2023-01-17T10:35:22.457Z,16.62
2023-01-17T10:36:22.388Z,16.63
2023-01-17T10:37:22.200Z,16.60
2023-01-17T10:38:22.305Z,16.67
2023-01-17T10:39:22.254Z,16.59
2023-01-17T10:40:22.282Z,16.59
2023-01-17T10:41:22.304Z,16.62
2023-01-17T10:43:22.354Z,16.59
2023-01-17T10:44:22.380Z,16.60
2023-01-17T10:45:22.407Z,16.63
2023-01-17T10:46:22.448Z,16.59
2023-01-17T10:47:22.458Z,16.62
2023-01-17T10:48:23.308Z,16.67
2023-01-17T10:49:22.525Z,16.57
2023-01-17T10:50:22.567Z,16.69
2023-01-17T10:51:22.671Z,16.65
2023-01-17T10:52:22.592Z,16.69
2023-01-17T10:53:22.621Z,16.69
2023-01-17T10:54:22.651Z,16.69
2023-01-17T10:55:22.678Z,16.72
2023-01-17T10:56:22.699Z,16.70
2023-01-17T10:57:22.730Z,16.70
2023-01-17T10:58:22.769Z,16.66
2023-01-17T10:59:23.061Z,16.70
2023-01-17T11:00:22.869Z,16.66
2023-01-17T11:01:23.055Z,16.67
2023-01-17T11:02:23.023Z,16.69
2023-01-17T11:03:22.900Z,16.69
2023-01-17T11:04:22.983Z,16.73
2023-01-17T11:05:22.960Z,16.67
2023-01-17T11:06:22.994Z,16.69
2023-01-17T11:08:23.029Z,16.70
2023-01-17T11:09:23.062Z,16.75
2023-01-17T11:10:23.082Z,16.75
2023-01-17T11:11:23.412Z,16.72
2023-01-17T11:12:23.140Z,16.80
2023-01-17T11:13:23.178Z,16.80
2023-01-17T11:14:23.215Z,16.82
2023-01-17T11:15:23.247Z,16.88
2023-01-17T11:16:23.258Z,16.75
2023-01-17T11:17:23.297Z,16.80
2023-01-17T11:18:23.553Z,16.85
2023-01-17T11:19:23.328Z,16.85
2023-01-17T11:20:23.353Z,16.84
2023-01-17T11:21:23.401Z,16.85
2023-01-17T11:22:23.435Z,16.82
2023-01-17T11:24:23.462Z,16.80
2023-01-17T11:25:23.895Z,16.80
2023-01-17T11:26:23.516Z,16.88
2023-01-17T11:27:23.551Z,16.82
2023-01-17T11:28:23.585Z,16.82
2023-01-17T11:29:23.603Z,16.84
2023-01-17T11:30:23.627Z,16.82
2023-01-17T11:31:23.699Z,16.80
2023-01-17T11:32:23.941Z,16.82
2023-01-17T11:33:23.725Z,16.82
2023-01-17T11:34:23.807Z,16.82
2023-01-17T11:35:23.775Z,16.85
2023-01-17T11:36:23.817Z,16.82
2023-01-17T11:37:23.859Z,16.87
2023-01-17T11:38:23.882Z,16.87
2023-01-17T11:39:23.879Z,16.80
2023-01-17T11:40:23.950Z,16.84
2023-01-17T11:41:23.986Z,16.88
2023-01-17T11:43:23.993Z,16.82
2023-01-17T11:44:24.038Z,16.91
2023-01-17T11:45:24.051Z,16.96
2023-01-17T11:46:24.156Z,16.95
2023-01-17T11:47:24.101Z,16.95
2023-01-17T11:48:24.164Z,16.98
2023-01-17T11:49:24.156Z,16.95
2023-01-17T11:50:24.176Z,16.88
2023-01-17T11:51:24.350Z,16.92
2023-01-17T11:52:24.258Z,16.98
2023-01-17T11:53:24.272Z,16.90
2023-01-17T11:54:24.309Z,16.90
2023-01-17T11:55:24.325Z,16.88
2023-01-17T11:56:24.340Z,16.96
2023-01-17T11:57:24.396Z,16.98
2023-01-17T11:58:24.395Z,16.99
2023-01-17T11:59:24.432Z,16.91
2023-01-17T12:00:24.458Z,16.99
2023-01-17T12:01:24.530Z,16.99
2023-01-17T12:02:24.512Z,16.99
2023-01-17T12:03:24.630Z,17.00
2023-01-17T12:04:24.565Z,16.98
2023-01-17T12:05:24.608Z,17.02
2023-01-17T12:06:24.617Z,16.98
2023-01-17T12:07:24.642Z,16.98
2023-01-17T12:08:24.667Z,16.99
2023-01-17T12:09:24.698Z,17.00
2023-01-17T12:10:24.761Z,17.00
2023-01-17T12:11:24.756Z,17.02
2023-01-17T12:12:24.795Z,16.98
2023-01-17T12:13:24.810Z,16.95
2023-01-17T12:14:24.832Z,16.96
2023-01-17T12:16:25.196Z,16.96
2023-01-17T12:17:24.924Z,16.99
2023-01-17T12:18:24.945Z,16.99
2023-01-17T12:19:24.978Z,17.00
2023-01-17T12:20:25.005Z,16.98
2023-01-17T12:21:25.036Z,17.00
2023-01-17T12:22:25.062Z,16.98
2023-01-17T12:23:25.115Z,17.02
2023-01-17T12:24:25.125Z,16.96
2023-01-17T12:25:25.155Z,16.98
2023-01-17T12:26:25.193Z,16.92
2023-01-17T12:27:25.205Z,16.99
2023-01-17T12:28:25.227Z,16.98
2023-01-17T12:29:25.551Z,16.96
2023-01-17T12:30:25.269Z,16.98
2023-01-17T12:31:25.334Z,17.00
2023-01-17T12:32:25.345Z,16.98
2023-01-17T12:33:25.368Z,17.02
2023-01-17T12:34:25.409Z,17.02
2023-01-17T12:35:25.419Z,16.98
2023-01-17T12:36:25.445Z,16.95
2023-01-17T12:37:25.497Z,16.92
2023-01-17T12:38:32.467Z,16.98
2023-01-17T12:39:25.583Z,16.90
2023-01-17T12:40:25.551Z,16.90
2023-01-17T12:41:25.583Z,16.90
2023-01-17T12:42:25.662Z,16.99
2023-01-17T12:43:25.634Z,16.88
2023-01-17T12:44:25.738Z,16.87
2023-01-17T12:45:25.701Z,16.90
2023-01-17T12:46:25.774Z,16.88
2023-01-17T12:47:25.752Z,16.96
2023-01-17T12:48:25.772Z,16.92
2023-01-17T12:49:25.818Z,16.91
2023-01-17T12:50:25.830Z,16.91
2023-01-17T12:51:25.855Z,16.98
2023-01-17T12:52:25.890Z,16.87
2023-01-17T12:53:25.910Z,16.98
2023-01-17T12:54:26.297Z,16.98
2023-01-17T12:55:25.970Z,16.98
2023-01-17T12:56:25.997Z,16.88
2023-01-17T12:57:26.023Z,16.95
2023-01-17T12:58:26.074Z,16.98
2023-01-17T12:59:26.091Z,16.91
2023-01-17T13:00:26.663Z,17.00
2023-01-17T13:01:26.195Z,16.95
2023-01-17T13:02:26.227Z,16.90
2023-01-17T13:03:26.185Z,16.85
2023-01-17T13:04:26.213Z,16.92
2023-01-17T13:05:26.239Z,16.92
2023-01-17T13:06:26.295Z,16.92
2023-01-17T13:07:26.299Z,16.99
2023-01-17T13:08:26.334Z,16.98
2023-01-17T13:09:26.353Z,16.88
2023-01-17T13:10:26.420Z,16.96
2023-01-17T13:11:26.405Z,16.91
2023-01-17T13:12:26.541Z,16.92
2023-01-17T13:13:26.759Z,16.98
2023-01-17T13:14:26.589Z,16.98
2023-01-17T13:15:26.520Z,16.95
2023-01-17T13:16:26.614Z,16.98
2023-01-17T13:17:26.570Z,17.00
2023-01-17T13:18:26.610Z,16.95
2023-01-17T13:19:26.644Z,16.92
2023-01-17T13:20:26.649Z,16.87
2023-01-17T13:21:26.684Z,16.82
2023-01-17T13:22:26.709Z,16.82